createdAt,value
2022-11-16T00:02:13.297Z,7.65
2022-11-16T00:04:39.741Z,8.95
2022-11-16T00:07:06.485Z,8.13
2022-11-16T00:09:33.539Z,9.15
2022-11-16T00:12:03.305Z,7.90
2022-11-16T00:14:34.887Z,9.02
2022-11-16T00:17:04.421Z,8.30
2022-11-16T00:19:31.046Z,8.30
2022-11-16T00:21:57.661Z,8.45
2022-11-16T00:24:24.393Z,8.52
2022-11-16T00:26:53.906Z,8.85
2022-11-16T00:29:23.100Z,8.13
2022-11-16T00:31:50.340Z,9.25
2022-11-16T00:34:17.292Z,8.40
2022-11-16T00:36:44.611Z,9.07
2022-11-16T00:39:13.006Z,8.40
2022-11-16T00:41:40.249Z,8.80
2022-11-16T00:44:07.146Z,9.38
2022-11-16T00:46:33.887Z,9.27
2022-11-16T00:49:00.309Z,8.10
2022-11-16T00:51:26.953Z,9.35
2022-11-16T00:53:53.337Z,9.80
2022-11-16T00:56:19.746Z,9.00
2022-11-16T00:58:46.118Z,8.27
2022-11-16T01:01:12.750Z,8.90
2022-11-16T01:03:39.790Z,8.63
2022-11-16T01:06:09.243Z,8.75
2022-11-16T01:08:37.909Z,9.23
2022-11-16T01:11:23.949Z,9.18
2022-11-16T01:13:50.724Z,9.95
2022-11-16T01:16:19.030Z,9.68
2022-11-16T01:18:50.917Z,8.85
2022-11-16T01:21:17.993Z,8.68
2022-11-16T01:23:44.429Z,8.80
2022-11-16T01:26:10.831Z,7.88
2022-11-16T01:28:37.423Z,8.82
2022-11-16T01:31:04.267Z,9.75
2022-11-16T01:33:30.835Z,8.35
2022-11-16T01:35:57.244Z,8.75
2022-11-16T01:38:28.418Z,8.90
2022-11-16T01:40:56.084Z,10.07
2022-11-16T01:43:25.587Z,9.25
2022-11-16T01:45:52.333Z,8.95
2022-11-16T01:48:27.611Z,9.82
2022-11-16T01:50:56.290Z,8.57
2022-11-16T01:53:23.946Z,10.15
2022-11-16T01:55:50.817Z,9.15
2022-11-16T01:58:24.197Z,8.75
2022-11-16T02:00:50.673Z,8.32
2022-11-16T02:03:18.945Z,8.68
2022-11-16T02:06:30.318Z,8.75
2022-11-16T02:09:34.159Z,8.48
2022-11-16T02:12:12.818Z,7.57
2022-11-16T02:14:48.188Z,8.77
2022-11-16T02:17:32.854Z,8.75
2022-11-16T02:20:24.189Z,8.32
2022-11-16T02:23:02.725Z,7.78
2022-11-16T02:25:53.783Z,7.78
2022-11-16T02:28:43.447Z,7.72
2022-11-16T02:31:16.190Z,8.20
2022-11-16T02:33:44.581Z,8.23
2022-11-16T02:36:16.954Z,7.28
2022-11-16T02:38:51.736Z,6.43
2022-11-16T02:41:21.615Z,7.88
2022-11-16T02:43:56.665Z,7.28
2022-11-16T02:46:29.025Z,7.80
2022-11-16T02:48:59.993Z,6.82
2022-11-16T02:51:28.977Z,8.05
2022-11-16T02:54:04.146Z,6.90
2022-11-16T02:56:30.769Z,7.50
2022-11-16T02:58:59.484Z,8.15
2022-11-16T03:01:35.601Z,6.95
2022-11-16T03:04:11.553Z,7.68
2022-11-16T03:06:41.519Z,7.00
2022-11-16T03:09:18.518Z,6.70
2022-11-16T03:14:34.220Z,6.80
2022-11-16T03:17:02.426Z,7.72
2022-11-16T03:19:57.611Z,6.78
2022-11-16T03:22:30.484Z,6.70
2022-11-16T03:24:57.509Z,5.88
2022-11-16T03:27:49.827Z,6.85
2022-11-16T03:30:23.529Z,6.72
2022-11-16T03:33:21.829Z,7.07
2022-11-16T03:35:55.458Z,6.90
2022-11-16T03:38:24.663Z,5.57
2022-11-16T03:40:52.033Z,5.95
2022-11-16T03:43:20.720Z,7.22
2022-11-16T03:45:47.484Z,7.07
2022-11-16T03:48:13.969Z,7.85
2022-11-16T03:50:41.003Z,6.45
2022-11-16T03:53:07.414Z,7.15
2022-11-16T03:55:33.842Z,6.70
2022-11-16T03:58:01.370Z,7.20
2022-11-16T04:00:27.761Z,7.50
2022-11-16T04:02:54.246Z,6.97
2022-11-16T04:05:39.186Z,7.53
2022-11-16T04:08:24.623Z,6.80
2022-11-16T04:11:09.791Z,7.10
2022-11-16T04:13:54.700Z,6.32
2022-11-16T04:16:39.524Z,6.75
2022-11-16T04:19:24.402Z,6.10
2022-11-16T04:22:12.742Z,6.00
2022-11-16T04:24:41.805Z,5.85
2022-11-16T04:27:31.873Z,5.75
2022-11-16T04:30:01.156Z,5.03
2022-11-16T04:32:46.600Z,4.75
2022-11-16T04:35:31.856Z,5.10
2022-11-16T04:37:59.412Z,4.95
2022-11-16T04:40:30.211Z,4.82
2022-11-16T04:42:58.793Z,4.45
2022-11-16T04:45:44.754Z,3.95
2022-11-16T04:48:12.543Z,4.50
2022-11-16T04:50:39.978Z,3.22
2022-11-16T04:53:07.552Z,3.88
2022-11-16T04:55:34.354Z,4.22
2022-11-16T04:58:01.420Z,3.70
2022-11-16T05:00:28.659Z,4.03
2022-11-16T05:03:00.788Z,4.05
2022-11-16T05:05:27.851Z,4.20
2022-11-16T05:07:54.260Z,3.92
2022-11-16T05:10:20.661Z,4.28
2022-11-16T05:12:47.058Z,4.38
2022-11-16T05:15:13.491Z,4.35
2022-11-16T05:17:39.961Z,4.43
2022-11-16T05:20:25.414Z,4.53
2022-11-16T05:23:00.709Z,4.32
2022-11-16T05:25:29.311Z,4.38
2022-11-16T05:27:57.705Z,4.47
2022-11-16T05:30:24.178Z,4.70
2022-11-16T05:32:50.696Z,4.53
2022-11-16T05:35:17.146Z,4.70
2022-11-16T05:37:44.539Z,5.03
2022-11-16T05:40:11.777Z,4.63
2022-11-16T05:42:38.254Z,5.20
2022-11-16T05:45:05.121Z,5.25
2022-11-16T05:47:33.370Z,5.32
2022-11-16T05:49:59.773Z,4.93
2022-11-16T05:52:26.172Z,4.45
2022-11-16T05:54:52.561Z,4.72
2022-11-16T05:57:18.989Z,5.07
2022-11-16T05:59:45.456Z,5.80
2022-11-16T06:02:14.555Z,5.38
2022-11-16T06:04:40.962Z,5.80
2022-11-16T06:07:07.366Z,5.90
2022-11-16T06:09:33.785Z,6.60
2022-11-16T06:12:00.172Z,7.22
2022-11-16T06:14:26.599Z,6.07
2022-11-16T06:16:53.134Z,7.60
2022-11-16T06:19:19.633Z,7.45
2022-11-16T06:21:46.048Z,8.35
2022-11-16T06:24:12.429Z,7.85
2022-11-16T06:26:38.843Z,7.97
2022-11-16T06:29:05.353Z,8.30
2022-11-16T06:31:31.805Z,8.45
2022-11-16T06:33:58.214Z,7.93
2022-11-16T06:36:25.609Z,8.50
2022-11-16T06:38:52.091Z,8.35
2022-11-16T06:41:18.626Z,8.75
2022-11-16T06:43:45.152Z,8.48
2022-11-16T06:46:11.677Z,8.88
2022-11-16T06:48:38.172Z,9.73
2022-11-16T06:51:04.696Z,9.63
2022-11-16T06:53:31.117Z,8.80
2022-11-16T06:56:05.236Z,8.90
2022-11-16T06:58:32.768Z,8.82
2022-11-16T07:01:09.804Z,8.75
2022-11-16T07:03:36.404Z,8.70
2022-11-16T07:06:10.525Z,8.60
2022-11-16T07:08:37.303Z,9.00
2022-11-16T07:11:05.387Z,9.50
2022-11-16T07:13:33.398Z,7.78
2022-11-16T07:16:06.436Z,7.55
2022-11-16T07:18:35.084Z,7.72
2022-11-16T07:21:13.333Z,7.43
2022-11-16T07:23:40.014Z,7.28
2022-11-16T07:26:08.169Z,7.35
2022-11-16T07:28:34.810Z,6.78
2022-11-16T07:31:03.261Z,6.53
2022-11-16T07:33:29.749Z,7.43
2022-11-16T07:36:02.179Z,6.25
2022-11-16T07:38:29.228Z,5.85
2022-11-16T07:40:59.976Z,5.90
2022-11-16T07:43:27.753Z,6.03
2022-11-16T07:45:55.739Z,5.35
2022-11-16T07:48:24.853Z,5.43
2022-11-16T07:50:51.237Z,4.57
2022-11-16T07:53:23.445Z,4.65
2022-11-16T07:55:53.811Z,4.13
2022-11-16T07:58:21.396Z,4.35
2022-11-16T08:00:48.134Z,3.75
2022-11-16T08:03:16.496Z,3.72
2022-11-16T08:05:46.949Z,3.45
2022-11-16T08:08:13.589Z,3.65
2022-11-16T08:10:39.937Z,3.92
2022-11-16T08:13:06.351Z,3.53
2022-11-16T08:15:32.754Z,3.38
2022-11-16T08:17:59.151Z,3.30
2022-11-16T08:20:25.637Z,3.08
2022-11-16T08:22:51.988Z,3.08
2022-11-16T08:25:18.514Z,2.60
2022-11-16T08:27:45.682Z,2.75
2022-11-16T08:30:12.998Z,2.65
2022-11-16T08:32:41.142Z,3.03
2022-11-16T08:35:07.904Z,2.28
2022-11-16T08:37:34.485Z,2.83
2022-11-16T08:40:02.401Z,3.55
2022-11-16T08:42:28.917Z,3.03
2022-11-16T08:44:55.268Z,3.17
2022-11-16T08:47:22.620Z,3.60
2022-11-16T08:49:49.783Z,3.85
2022-11-16T08:52:16.364Z,3.45
2022-11-16T08:54:42.705Z,3.60
2022-11-16T08:57:09.130Z,3.58
2022-11-16T08:59:35.516Z,3.38
2022-11-16T09:02:02.016Z,3.40
2022-11-16T09:04:32.732Z,3.65
2022-11-16T09:07:02.199Z,3.17
2022-11-16T09:09:28.576Z,3.60
2022-11-16T09:11:55.587Z,2.80
2022-11-16T09:14:21.971Z,3.30
2022-11-16T09:16:49.354Z,3.75
2022-11-16T09:19:15.781Z,3.00
2022-11-16T09:21:42.547Z,3.05
2022-11-16T09:24:09.180Z,4.00
2022-11-16T09:26:35.565Z,3.63
2022-11-16T09:29:04.274Z,2.90
2022-11-16T09:31:34.605Z,2.83
2022-11-16T09:34:00.970Z,2.72
2022-11-16T09:36:28.782Z,2.70
2022-11-16T09:39:29.407Z,2.95
2022-11-16T09:42:00.837Z,2.40
2022-11-16T09:44:42.348Z,2.78
2022-11-16T09:47:19.441Z,2.65
2022-11-16T09:49:52.229Z,3.20
2022-11-16T09:52:40.471Z,2.50
2022-11-16T09:55:36.733Z,2.80
2022-11-16T09:58:12.753Z,2.78
2022-11-16T10:00:44.551Z,2.58
2022-11-16T10:03:15.116Z,2.55
2022-11-16T10:05:50.422Z,2.47
2022-11-16T10:08:33.624Z,2.92
2022-11-16T10:11:23.599Z,2.17
2022-11-16T10:14:04.395Z,2.42
2022-11-16T10:16:48.519Z,2.75
2022-11-16T10:19:41.561Z,2.13
2022-11-16T10:22:32.703Z,2.30
2022-11-16T10:25:07.135Z,2.28
2022-11-16T10:28:15.605Z,2.35
2022-11-16T10:30:59.688Z,2.30
2022-11-16T10:33:35.449Z,1.92
2022-11-16T10:36:13.988Z,2.15
2022-11-16T10:38:42.300Z,2.05
2022-11-16T10:41:21.019Z,2.30
2022-11-16T10:43:48.720Z,1.85
2022-11-16T10:46:36.244Z,1.80
2022-11-16T10:49:16.133Z,1.67
2022-11-16T10:51:45.842Z,2.05
2022-11-16T10:54:16.202Z,2.30
2022-11-16T10:56:46.658Z,2.10
2022-11-16T10:59:15.653Z,2.03
2022-11-16T11:01:58.971Z,2.28
2022-11-16T11:04:29.887Z,2.53
2022-11-16T11:07:02.089Z,2.00
2022-11-16T11:09:38.185Z,1.98
2022-11-16T11:12:32.998Z,2.35
2022-11-16T11:15:11.220Z,2.13
2022-11-16T11:17:47.283Z,2.03
2022-11-16T11:20:16.625Z,1.80
2022-11-16T11:22:52.320Z,1.75
2022-11-16T11:25:25.932Z,2.40
2022-11-16T11:28:05.307Z,2.20
2022-11-16T11:30:32.317Z,1.65
2022-11-16T11:32:59.259Z,2.15
2022-11-16T11:35:30.076Z,1.90
2022-11-16T11:38:03.376Z,1.70
2022-11-16T11:40:33.694Z,2.45
2022-11-16T11:43:05.367Z,2.00
2022-11-16T11:45:46.675Z,2.53
2022-11-16T11:48:47.965Z,1.45
2022-11-16T11:51:25.454Z,2.55
2022-11-16T11:53:53.957Z,2.08
2022-11-16T11:56:20.612Z,1.77
2022-11-16T11:58:48.345Z,1.70
2022-11-16T12:01:49.223Z,1.70
2022-11-16T12:04:50.221Z,1.92
2022-11-16T12:07:29.441Z,2.40
2022-11-16T12:10:14.643Z,1.67
2022-11-16T12:13:19.020Z,2.00
2022-11-16T12:16:04.197Z,1.90
2022-11-16T12:18:49.532Z,1.90
2022-11-16T12:21:49.837Z,1.75
2022-11-16T12:24:34.541Z,1.70
2022-11-16T12:27:19.968Z,2.13
2022-11-16T12:30:11.379Z,2.10
2022-11-16T12:32:51.867Z,1.80
2022-11-16T12:35:48.755Z,1.65
2022-11-16T12:38:34.918Z,2.20
2022-11-16T12:41:19.279Z,1.80
2022-11-16T12:44:08.921Z,1.83
2022-11-16T12:46:47.136Z,2.45
2022-11-16T12:50:01.208Z,1.73
2022-11-16T12:52:54.385Z,2.17
2022-11-16T12:55:30.031Z,2.03
2022-11-16T12:58:07.265Z,2.35
2022-11-16T13:00:50.080Z,1.33
2022-11-16T13:03:23.507Z,2.05
2022-11-16T13:05:56.842Z,1.60
2022-11-16T13:08:40.050Z,1.60
2022-11-16T13:13:53.849Z,1.50
2022-11-16T13:16:21.939Z,1.42
2022-11-16T13:18:48.513Z,1.40
2022-11-16T13:21:25.552Z,1.52
2022-11-16T13:24:22.939Z,0.95
2022-11-16T13:27:10.823Z,1.38
2022-11-16T13:29:46.470Z,1.33
2022-11-16T13:32:28.371Z,1.95
2022-11-16T13:34:55.335Z,1.70
2022-11-16T13:37:37.428Z,1.00
2022-11-16T13:40:06.732Z,1.77
2022-11-16T13:42:42.945Z,1.75
2022-11-16T13:45:17.674Z,1.33
2022-11-16T13:47:55.954Z,1.75
2022-11-16T13:50:33.024Z,1.70
2022-11-16T13:56:15.970Z,1.52
2022-11-16T13:58:55.534Z,1.27
2022-11-16T14:01:23.775Z,1.42
2022-11-16T14:03:52.207Z,1.52
2022-11-16T14:06:24.753Z,1.35
2022-11-16T14:08:53.087Z,1.50
2022-11-16T14:11:40.698Z,1.40
2022-11-16T14:14:48.599Z,1.30
2022-11-16T14:18:00.872Z,1.27
2022-11-16T14:20:37.088Z,1.33
2022-11-16T14:23:11.826Z,1.33
2022-11-16T14:25:47.270Z,1.58
2022-11-16T14:28:19.654Z,1.38
2022-11-16T14:31:07.751Z,1.30
2022-11-16T14:33:37.225Z,1.60
2022-11-16T14:36:07.559Z,1.23
2022-11-16T14:38:36.664Z,1.40
2022-11-16T14:41:05.902Z,1.73
2022-11-16T14:43:42.035Z,1.67
2022-11-16T14:46:27.977Z,1.70
2022-11-16T14:48:57.152Z,1.38
2022-11-16T14:51:34.912Z,2.20
2022-11-16T14:54:25.824Z,1.42
2022-11-16T14:57:00.467Z,1.42
2022-11-16T14:59:28.046Z,1.27
2022-11-16T15:01:54.667Z,1.73
2022-11-16T15:04:24.169Z,1.60
2022-11-16T15:06:56.012Z,1.48
2022-11-16T15:09:28.215Z,1.17
2022-11-16T15:12:13.832Z,1.55
2022-11-16T15:14:46.364Z,1.48
2022-11-16T15:17:18.267Z,1.45
2022-11-16T15:19:54.459Z,1.70
2022-11-16T15:22:23.922Z,2.08
2022-11-16T15:24:58.666Z,1.92
2022-11-16T15:27:34.564Z,1.70
2022-11-16T15:30:03.642Z,1.88
2022-11-16T15:32:31.340Z,1.92
2022-11-16T15:35:02.463Z,2.13
2022-11-16T15:37:31.686Z,2.20
2022-11-16T15:39:59.901Z,2.13
2022-11-16T15:42:28.589Z,2.08
2022-11-16T15:44:55.865Z,2.28
2022-11-16T15:47:23.522Z,1.98
2022-11-16T15:49:52.820Z,2.30
2022-11-16T15:52:42.661Z,1.80
2022-11-16T15:55:28.795Z,2.33
2022-11-16T15:58:26.357Z,2.50
2022-11-16T16:00:54.600Z,2.63
2022-11-16T16:03:25.099Z,2.65
2022-11-16T16:05:52.316Z,3.25
2022-11-16T16:08:38.561Z,2.90
2022-11-16T16:11:20.338Z,2.72
2022-11-16T16:14:24.406Z,2.50
2022-11-16T16:16:53.463Z,2.92
2022-11-16T16:19:44.671Z,3.28
2022-11-16T16:22:28.289Z,3.05
2022-11-16T16:24:55.264Z,3.08
2022-11-16T16:27:24.377Z,2.88
2022-11-16T16:29:52.823Z,2.67
2022-11-16T16:32:28.141Z,2.90
2022-11-16T16:34:56.970Z,2.85
2022-11-16T16:37:26.265Z,3.10
2022-11-16T16:39:52.776Z,3.05
2022-11-16T16:42:19.294Z,3.05
2022-11-16T16:44:47.071Z,2.72
2022-11-16T16:47:14.972Z,2.58
2022-11-16T16:49:41.863Z,3.08
2022-11-16T16:52:11.929Z,3.10
2022-11-16T16:54:38.534Z,2.90
2022-11-16T16:57:04.935Z,2.72
2022-11-16T16:59:31.341Z,2.50
2022-11-16T17:01:58.464Z,2.50
2022-11-16T17:04:25.363Z,3.42
2022-11-16T17:06:52.588Z,2.47
2022-11-16T17:09:19.074Z,3.35
2022-11-16T17:11:46.818Z,2.70
2022-11-16T17:14:13.209Z,2.30
2022-11-16T17:16:39.609Z,3.28
2022-11-16T17:19:05.987Z,3.85
2022-11-16T17:21:32.445Z,4.15
2022-11-16T17:23:58.959Z,3.95
2022-11-16T17:26:29.153Z,3.85
2022-11-16T17:28:57.015Z,3.85
2022-11-16T17:31:24.205Z,3.10
2022-11-16T17:33:51.211Z,3.95
2022-11-16T17:36:17.854Z,3.22
2022-11-16T17:38:44.408Z,3.88
2022-11-16T17:41:14.914Z,3.63
2022-11-16T17:43:42.841Z,4.40
2022-11-16T17:46:11.650Z,3.35
2022-11-16T17:48:39.595Z,4.30
2022-11-16T17:51:06.515Z,7.20
2022-11-16T17:53:35.442Z,4.60
2022-11-16T17:56:03.524Z,5.50
2022-11-16T17:58:30.929Z,6.28
2022-11-16T18:00:57.504Z,8.63
2022-11-16T18:03:29.570Z,5.53
2022-11-16T18:06:06.560Z,9.30
2022-11-16T18:08:34.331Z,11.18
2022-11-16T18:11:09.726Z,6.65
2022-11-16T18:13:37.165Z,5.97
2022-11-16T18:16:11.064Z,22.35
2022-11-16T18:18:38.468Z,16.27
2022-11-16T18:21:06.500Z,6.60
2022-11-16T18:23:34.351Z,9.35
2022-11-16T18:26:03.351Z,6.28
2022-11-16T18:28:30.231Z,6.57
2022-11-16T18:31:08.638Z,10.35
2022-11-16T18:33:37.199Z,5.80
2022-11-16T18:36:05.007Z,10.70
2022-11-16T18:38:31.532Z,4.78
2022-11-16T18:41:12.997Z,7.75
2022-11-16T18:43:40.893Z,10.18
2022-11-16T18:46:07.563Z,12.25
2022-11-16T18:48:34.214Z,7.72
2022-11-16T18:51:03.861Z,5.13
2022-11-16T18:53:31.776Z,5.43
2022-11-16T18:55:58.621Z,6.55
2022-11-16T18:58:49.332Z,5.97
2022-11-16T19:01:15.263Z,7.22
2022-11-16T19:03:41.726Z,6.95
2022-11-16T19:06:09.746Z,8.07
2022-11-16T19:08:37.918Z,4.68
2022-11-16T19:11:05.776Z,5.70
2022-11-16T19:13:32.947Z,3.22
2022-11-16T19:15:59.841Z,4.70
2022-11-16T19:18:27.298Z,5.70
2022-11-16T19:21:21.889Z,5.63
2022-11-16T19:23:53.046Z,4.88
2022-11-16T19:26:21.495Z,3.72
2022-11-16T19:28:49.501Z,4.03
2022-11-16T19:31:21.042Z,7.35
2022-11-16T19:33:47.556Z,7.60
2022-11-16T19:36:16.458Z,3.85
2022-11-16T19:38:44.413Z,4.35
2022-11-16T19:41:12.719Z,9.85
2022-11-16T19:43:39.389Z,6.57
2022-11-16T19:46:17.913Z,11.07
2022-11-16T19:48:45.804Z,4.38
2022-11-16T19:51:16.053Z,3.60
2022-11-16T19:53:42.529Z,5.50
2022-11-16T19:56:11.633Z,4.68
2022-11-16T19:58:38.719Z,5.80
2022-11-16T20:01:10.852Z,7.07
2022-11-16T20:03:38.457Z,3.78
2022-11-16T20:06:22.631Z,7.15
2022-11-16T20:08:53.851Z,4.00
2022-11-16T20:11:21.348Z,4.75
2022-11-16T20:13:48.847Z,3.72
2022-11-16T20:16:16.540Z,4.15
2022-11-16T20:18:43.893Z,8.07
2022-11-16T20:21:19.152Z,5.93
2022-11-16T20:23:45.611Z,4.28
2022-11-16T20:26:13.537Z,4.00
2022-11-16T20:28:42.315Z,5.70
2022-11-16T20:31:20.442Z,4.55
2022-11-16T20:33:52.061Z,4.47
2022-11-16T20:36:19.364Z,4.63
2022-11-16T20:38:45.723Z,4.35
2022-11-16T20:41:17.560Z,5.88
2022-11-16T20:43:45.001Z,6.82
2022-11-16T20:46:16.784Z,3.88
2022-11-16T20:48:43.991Z,10.30
2022-11-16T20:51:13.150Z,6.25
2022-11-16T20:53:39.706Z,3.25
2022-11-16T20:56:07.733Z,2.83
2022-11-16T20:58:34.941Z,3.00
2022-11-16T21:01:03.019Z,4.03
2022-11-16T21:03:29.464Z,3.95
2022-11-16T21:05:55.994Z,3.72
2022-11-16T21:08:24.411Z,3.00
2022-11-16T21:10:50.946Z,2.28
2022-11-16T21:13:37.703Z,1.92
2022-11-16T21:16:06.743Z,2.30
2022-11-16T21:18:33.820Z,1.88
2022-11-16T21:21:04.909Z,1.95
2022-11-16T21:23:33.370Z,2.13
2022-11-16T21:26:08.223Z,2.28
2022-11-16T21:28:34.740Z,2.63
2022-11-16T21:31:03.306Z,2.58
2022-11-16T21:33:30.178Z,2.53
2022-11-16T21:35:56.646Z,2.88
2022-11-16T21:38:25.547Z,2.03
2022-11-16T21:40:51.935Z,2.63
2022-11-16T21:43:18.345Z,2.80
2022-11-16T21:45:46.586Z,3.47
2022-11-16T21:48:13.556Z,2.55
2022-11-16T21:50:40.010Z,2.53
2022-11-16T21:53:07.206Z,2.50
2022-11-16T21:55:34.372Z,2.33
2022-11-16T21:58:03.387Z,2.50
2022-11-16T22:00:30.323Z,2.50
2022-11-16T22:02:56.923Z,2.85
2022-11-16T22:05:41.964Z,2.75
2022-11-16T22:08:11.586Z,3.05
2022-11-16T22:10:38.115Z,3.05
2022-11-16T22:13:06.738Z,2.50
2022-11-16T22:15:33.298Z,2.90
2022-11-16T22:18:02.468Z,2.83
2022-11-16T22:20:31.707Z,1.95
2022-11-16T22:22:58.157Z,2.80
2022-11-16T22:25:27.715Z,2.30
2022-11-16T22:30:40.813Z,3.05
2022-11-16T22:33:07.185Z,2.70
2022-11-16T22:35:33.547Z,2.65
2022-11-16T22:38:02.276Z,2.85
2022-11-16T22:40:28.645Z,2.78
2022-11-16T22:42:59.097Z,3.03
2022-11-16T22:45:26.001Z,3.00
2022-11-16T22:47:54.899Z,3.28
2022-11-16T22:50:23.328Z,2.80
2022-11-16T22:52:49.765Z,3.00
2022-11-16T22:55:16.144Z,2.47
2022-11-16T22:57:42.570Z,2.60
2022-11-16T23:00:09.970Z,3.22
2022-11-16T23:02:36.347Z,2.67
2022-11-16T23:05:02.730Z,2.38
2022-11-16T23:07:29.138Z,2.90
2022-11-16T23:09:55.528Z,3.83
2022-11-16T23:12:40.183Z,2.58
2022-11-16T23:15:30.559Z,2.53
2022-11-16T23:17:57.218Z,3.13
2022-11-16T23:20:42.414Z,3.38
2022-11-16T23:23:38.436Z,3.03
2022-11-16T23:26:41.649Z,3.22
2022-11-16T23:29:10.339Z,2.42
2022-11-16T23:31:37.870Z,2.30
2022-11-16T23:34:04.713Z,2.45
2022-11-16T23:36:31.179Z,3.20
2022-11-16T23:38:57.586Z,2.72
2022-11-16T23:41:42.663Z,3.38
2022-11-16T23:44:09.079Z,2.85
2022-11-16T23:46:35.468Z,2.72
2022-11-16T23:49:02.122Z,2.88
2022-11-16T23:51:28.516Z,2.95
2022-11-16T23:53:55.747Z,3.03
2022-11-16T23:56:22.649Z,3.30
2022-11-16T23:58:49.294Z,2.90
